KLM78Q OMDB-EHAM
Flight info
| Callsign | KLM78Q |
|---|---|
| Flight time | N/A |
| Altitude | 40000 |
| Route | SENPA N571 ALPOB L768 VATIM L550 NOVPA J981 DATOK L550 GENIV L324 LAKTO DCT OTHON UN128 RDS UL609 MES DCT FSK/N0493F430 UL608 DISOR DCT LONTA UL608 DOLEV DCT GUBOK DCT OBUTI DCT LAMSI DCT MAPOX L604 BIGGE DCT AMSAN T281 NORKU |
| Aircraft | A359/H-SDE2E3GHIJ3J4J5LM1ORWXY/LB1D1 |
Departure
| Time | 2026-04-22 08:48 |
|---|---|
| Airport | Dubai International Airport (OMDB) |
Arrival
| Time | N/A |
|---|---|
| Airport | Amsterdam Airport Schiphol (EHAM) |
| Time | Latitude | Longitude | Altitude | Speed | Heading |
|---|---|---|---|---|---|
| 2026-04-22 07:47 | 25.25240 | 55.35645 | 27 ft | 0 kts | 211° |
| 2026-04-22 08:37 | 25.25251 | 55.35653 | 28 ft | 4 kts | 211° |
| 2026-04-22 08:37 | 25.25274 | 55.35669 | 30 ft | 4 kts | 211° |
| 2026-04-22 08:37 | 25.25297 | 55.35684 | 26 ft | 4 kts | 210° |
| 2026-04-22 08:37 | 25.25313 | 55.35692 | 26 ft | 4 kts | 188° |
| 2026-04-22 08:38 | 25.25336 | 55.35688 | 28 ft | 4 kts | 136° |
| 2026-04-22 08:38 | 25.25353 | 55.35662 | 25 ft | 4 kts | 121° |
| 2026-04-22 08:38 | 25.25363 | 55.35645 | 26 ft | 3 kts | 121° |
| 2026-04-22 08:38 | 25.25365 | 55.35641 | 26 ft | 0 kts | 121° |
| 2026-04-22 08:41 | 25.25326 | 55.35700 | 28 ft | 12 kts | 126° |
| 2026-04-22 08:41 | 25.25284 | 55.35788 | 28 ft | 13 kts | 101° |
| 2026-04-22 08:41 | 25.25324 | 55.35865 | 28 ft | 12 kts | 27° |
| 2026-04-22 08:42 | 25.25397 | 55.35913 | 28 ft | 13 kts | 32° |
| 2026-04-22 08:42 | 25.25477 | 55.35971 | 28 ft | 14 kts | 34° |
| 2026-04-22 08:42 | 25.25565 | 55.36027 | 28 ft | 15 kts | 30° |
| 2026-04-22 08:42 | 25.25643 | 55.36102 | 28 ft | 13 kts | 73° |
| 2026-04-22 08:43 | 25.25632 | 55.36168 | 28 ft | 14 kts | 112° |
| 2026-04-22 08:43 | 25.25585 | 55.36266 | 28 ft | 16 kts | 120° |
| 2026-04-22 08:43 | 25.25503 | 55.36410 | 28 ft | 18 kts | 123° |
| 2026-04-22 08:43 | 25.25459 | 55.36488 | 28 ft | 18 kts | 122° |
| 2026-04-22 08:44 | 25.25363 | 55.36656 | 28 ft | 20 kts | 116° |
| 2026-04-22 08:44 | 25.25316 | 55.36747 | 28 ft | 21 kts | 122° |
| 2026-04-22 08:44 | 25.25237 | 55.36886 | 28 ft | 22 kts | 120° |
| 2026-04-22 08:44 | 25.25153 | 55.37034 | 28 ft | 23 kts | 123° |
| 2026-04-22 08:45 | 25.25068 | 55.37190 | 28 ft | 24 kts | 121° |
| 2026-04-22 08:45 | 25.24949 | 55.37405 | 28 ft | 25 kts | 122° |
| 2026-04-22 08:45 | 25.24887 | 55.37516 | 28 ft | 26 kts | 120° |
| 2026-04-22 08:45 | 25.24763 | 55.37747 | 28 ft | 27 kts | 120° |
| 2026-04-22 08:46 | 25.24701 | 55.37858 | 28 ft | 12 kts | 122° |
| 2026-04-22 08:46 | 25.24699 | 55.37863 | 28 ft | 1 kts | 122° |
| 2026-04-22 08:46 | 25.24680 | 55.37909 | 28 ft | 11 kts | 101° |
| 2026-04-22 08:46 | 25.24729 | 55.37988 | 28 ft | 16 kts | 34° |
| 2026-04-22 08:47 | 25.24823 | 55.37985 | 28 ft | 9 kts | 306° |
| 2026-04-22 08:47 | 25.24846 | 55.37945 | 28 ft | 10 kts | 302° |
| 2026-04-22 08:47 | 25.24984 | 55.37699 | 28 ft | 81 kts | 301° |
| 2026-04-22 08:47 | 25.25437 | 55.36890 | 29 ft | 164 kts | 303° |
| 2026-04-22 08:48 | 25.26065 | 55.35715 | 768 ft | 178 kts | 303° |
| 2026-04-22 08:48 | 25.26697 | 55.34530 | 1854 ft | 178 kts | 302° |
| 2026-04-22 08:48 | 25.27337 | 55.33400 | 2408 ft | 174 kts | 298° |
| 2026-04-22 08:48 | 25.27995 | 55.32229 | 2629 ft | 190 kts | 299° |
| 2026-04-22 08:49 | 25.28723 | 55.30928 | 2837 ft | 208 kts | 299° |
| 2026-04-22 08:49 | 25.29431 | 55.29455 | 3056 ft | 226 kts | 285° |
| 2026-04-22 08:49 | 25.29729 | 55.27706 | 3370 ft | 236 kts | 271° |
| 2026-04-22 08:49 | 25.29867 | 55.25901 | 3966 ft | 234 kts | 271° |
| 2026-04-22 08:50 | 25.29995 | 55.24110 | 4584 ft | 233 kts | 270° |
| 2026-04-22 08:50 | 25.30128 | 55.22333 | 5093 ft | 236 kts | 270° |
| 2026-04-22 08:50 | 25.30268 | 55.20517 | 5607 ft | 238 kts | 270° |
| 2026-04-22 08:50 | 25.30383 | 55.18686 | 6109 ft | 239 kts | 266° |
| 2026-04-22 08:51 | 25.30314 | 55.16821 | 6439 ft | 248 kts | 261° |
| 2026-04-22 08:51 | 25.30165 | 55.14881 | 6637 ft | 263 kts | 261° |
| 2026-04-22 08:51 | 25.29998 | 55.12817 | 6994 ft | 272 kts | 261° |
| 2026-04-22 08:51 | 25.29833 | 55.10728 | 7485 ft | 274 kts | 262° |
| 2026-04-22 08:52 | 25.29671 | 55.08623 | 8031 ft | 275 kts | 262° |
| 2026-04-22 08:52 | 25.29509 | 55.06530 | 8555 ft | 277 kts | 262° |
| 2026-04-22 08:52 | 25.29344 | 55.04389 | 9087 ft | 279 kts | 262° |
| 2026-04-22 08:52 | 25.29179 | 55.02253 | 9657 ft | 280 kts | 262° |
| 2026-04-22 08:53 | 25.29014 | 55.00121 | 10131 ft | 284 kts | 263° |
| 2026-04-22 08:53 | 25.28840 | 54.97898 | 10353 ft | 297 kts | 263° |
| 2026-04-22 08:53 | 25.28658 | 54.95570 | 10541 ft | 310 kts | 263° |
| 2026-04-22 08:53 | 25.28493 | 54.93140 | 10721 ft | 323 kts | 265° |
| 2026-04-22 08:54 | 25.28423 | 54.90633 | 10896 ft | 335 kts | 266° |
| 2026-04-22 08:54 | 25.28370 | 54.88011 | 11077 ft | 346 kts | 267° |
| 2026-04-22 08:54 | 25.28307 | 54.85318 | 11284 ft | 354 kts | 266° |
| 2026-04-22 08:54 | 25.28237 | 54.82572 | 11621 ft | 358 kts | 267° |
| 2026-04-22 08:55 | 25.28161 | 54.79811 | 12027 ft | 360 kts | 267° |
| 2026-04-22 08:55 | 25.28084 | 54.77067 | 12417 ft | 361 kts | 267° |
| 2026-04-22 08:55 | 25.28196 | 54.74274 | 12816 ft | 365 kts | 277° |
| 2026-04-22 08:55 | 25.28765 | 54.71535 | 13222 ft | 367 kts | 283° |
| 2026-04-22 08:56 | 25.29459 | 54.68807 | 13633 ft | 368 kts | 284° |
| 2026-04-22 08:56 | 25.30156 | 54.66107 | 13989 ft | 370 kts | 284° |
| 2026-04-22 08:56 | 25.30859 | 54.63361 | 14352 ft | 371 kts | 284° |
| 2026-04-22 08:56 | 25.31560 | 54.60608 | 14757 ft | 371 kts | 284° |
| 2026-04-22 08:57 | 25.32258 | 54.57854 | 15148 ft | 372 kts | 284° |
| 2026-04-22 08:57 | 25.32955 | 54.55092 | 15499 ft | 374 kts | 284° |
| 2026-04-22 08:57 | 25.33658 | 54.52316 | 15860 ft | 376 kts | 284° |
| 2026-04-22 08:57 | 25.34392 | 54.49538 | 16234 ft | 377 kts | 285° |
| 2026-04-22 08:58 | 25.35141 | 54.46782 | 16582 ft | 379 kts | 285° |
| 2026-04-22 08:58 | 25.35910 | 54.43980 | 16944 ft | 381 kts | 285° |
| 2026-04-22 08:58 | 25.36683 | 54.41160 | 17315 ft | 383 kts | 285° |
| 2026-04-22 08:58 | 25.37455 | 54.38331 | 17684 ft | 384 kts | 285° |
| 2026-04-22 08:59 | 25.38227 | 54.35486 | 18042 ft | 386 kts | 285° |
| 2026-04-22 08:59 | 25.38988 | 54.32668 | 18345 ft | 388 kts | 285° |
| 2026-04-22 08:59 | 25.39760 | 54.29798 | 18649 ft | 389 kts | 285° |
| 2026-04-22 08:59 | 25.40536 | 54.26914 | 18937 ft | 391 kts | 285° |
| 2026-04-22 09:00 | 25.41291 | 54.23997 | 19245 ft | 393 kts | 284° |
| 2026-04-22 09:00 | 25.42007 | 54.21114 | 19536 ft | 394 kts | 284° |
| 2026-04-22 09:00 | 25.42724 | 54.18175 | 19822 ft | 396 kts | 283° |
| 2026-04-22 09:00 | 25.43443 | 54.15222 | 20105 ft | 398 kts | 283° |
| 2026-04-22 09:01 | 25.44169 | 54.12253 | 20414 ft | 399 kts | 283° |
| 2026-04-22 09:01 | 25.44903 | 54.09272 | 20684 ft | 401 kts | 283° |
| 2026-04-22 09:01 | 25.45628 | 54.06311 | 20939 ft | 403 kts | 283° |
| 2026-04-22 09:01 | 25.46354 | 54.03294 | 21214 ft | 405 kts | 283° |
| 2026-04-22 09:02 | 25.47076 | 54.00269 | 21478 ft | 407 kts | 282° |
| 2026-04-22 09:02 | 25.47803 | 53.97221 | 21787 ft | 408 kts | 282° |
| 2026-04-22 09:02 | 25.48523 | 53.94208 | 22053 ft | 409 kts | 282° |